Aérodrome :
LOGIN :

S'inscrire | Disclaimer

   EN    FR    IT 

 










Légende :    VFR   VFR Marginal   IFR   IFR Intensif   IFR Très Intensif
Visi : 
Plafond : 
>= 8 km
>= 3000ft
5 à 8 km
1000 à 3000 ft
1500m à 5 km
500 à 1000 ft
800 à 1500m
200 à 500 ft
< 800m
< 200 ft
Symboles :   Orages  Brouillard  Fortes neiges  Fortes précipitations  Vent > 20 kt
SIGMETs :   Divers  Orages  Givrage  Turbulence  Onde Orograph.  Cendres Volcan.






- Altitude de l'aérodrome : 291 ft
- Code IATA : ORY


LFPO - Paris-Orly

DERNIER METAR :
  • 220600Z 14003KT 9999 -RA SCT018 BKN027 04/03 Q0992 NOSIG

METARs EXPIRÉS :
  • 220530Z VRB02KT 7000 RA BKN017 BKN025 04/02 Q0992 NOSIG
  • 220500Z 34004KT 310V010 8000 RA BKN018 BKN026 04/03 Q0992 NOSIG
  • 220430Z 03004KT 340V080 8000 -RA BKN018 BKN028 05/03 Q0992 NOSIG
  • 220400Z 36007KT 320V050 8000 RA BKN016 BKN026 05/03 Q0992 NOSIG
  • 220330Z 33005KT 7000 RA FEW020 BKN030 BKN038 05/04 Q0992 NOSIG
  • 220319Z 31004KT 9000 -RA SCT030 BKN040 05/05 Q0992 NOSIG

TAF TAF LFPO
Valide du 22 à 06h jusqu'au 23 à 12h UTC


220500Z 2206/2312 VRB03KT 9999 BKN030
TEMPO 2206/2207 BKN012
BECMG 2207/2209 27005KT
PROB30
TEMPO 2215/2218 4000 -SHRA
BECMG 2303/2305 18010KT BKN012
TEMPO 2304/2308 BKN008
TEMPO 2309/2312 4000 RA BKN010
PROB40
TEMPO 2309/2312 -RASN
ATIS : +33 1 49 75 65 80



MET'MAP, la Météo Aéronautique d'un coup d'oeil ! - Copyright ORBIFLY Décembre 2007 - Disclaimer

ORBIFLY MET'MAP TEAM :

Programmation & Développement : Alexandra Zaïnal
Sur une idée originale de : Baudouin d'Aumeries
Assistance à la programmation : Marc-Olivier Méhu
Soutien technique & logistique : Manuel Goepfert

Contact : metmap@orbifly.com




SOURCES & CREDITS :

   NOAA